Time;durP1;ratioP1;P1;durP2;ratioP2;P2;SDS_P1;SDS_P2;PMS_P1;PMS_P2;Temp;Humidity;BMP_temperature;BMP_pressure;BME280_temperature;BME280_humidity;BME280_pressure;Samples;Min_cycle;Max_cycle;Signal;HPM_P1;HPM_P2
2022/10/01 00:00:48;;;;;;;8.63;6.53;;;;;;;;;;5011369;28;20045;-37
2022/10/01 00:03:13;;;;;;;7.45;6.15;;;;;;;;;;5012019;28;20014;-37
2022/10/01 00:05:38;;;;;;;8.13;6.30;;;;;;;;;;5011806;28;20508;-37
2022/10/01 00:08:03;;;;;;;8.73;6.47;;;;;;;;;;5010916;28;20313;-37
2022/10/01 00:10:30;;;;;;;9.97;6.87;;;;;;;;;;5011763;28;20279;-37
2022/10/01 00:12:55;;;;;;;11.02;6.43;;;;;;;;;;5011521;28;20255;-37
2022/10/01 00:15:21;;;;;;;9.63;6.70;;;;;;;;;;5011576;28;20022;-38
2022/10/01 00:17:47;;;;;;;12.10;7.32;;;;;;;;;;5011348;28;20026;-37
2022/10/01 00:20:13;;;;;;;14.38;7.93;;;;;;;;;;5011495;28;20022;-37
2022/10/01 00:22:38;;;;;;;10.63;6.78;;;;;;;;;;5011409;28;20388;-37
2022/10/01 00:25:05;;;;;;;11.57;7.50;;;;;;;;;;5011457;28;20065;-37
2022/10/01 00:27:30;;;;;;;8.38;6.68;;;;;;;;;;5011185;28;20038;-38
2022/10/01 00:29:56;;;;;;;8.25;6.47;;;;;;;;;;5010997;28;20370;-38
2022/10/01 00:32:21;;;;;;;8.68;6.30;;;;;;;;;;5014917;28;20063;-39
2022/10/01 00:34:47;;;;;;;10.98;6.40;;;;;;;;;;5029645;28;20026;-37
2022/10/01 00:37:13;;;;;;;10.50;6.57;;;;;;;;;;5030347;28;20471;-38
2022/10/01 00:39:38;;;;;;;9.75;6.78;;;;;;;;;;5031076;28;20021;-38
2022/10/01 00:42:16;;;;;;;10.35;7.40;;;;;;;;;;5031354;28;20018;-37
2022/10/01 00:44:41;;;;;;;10.00;6.95;;;;;;;;;;5030897;28;20505;-38
2022/10/01 00:47:12;;;;;;;12.32;6.88;;;;;;;;;;5030773;28;20114;-37
2022/10/01 00:49:39;;;;;;;8.23;6.38;;;;;;;;;;5030201;28;20096;-38
2022/10/01 00:52:06;;;;;;;11.98;7.28;;;;;;;;;;5031391;28;20025;-38
2022/10/01 00:54:35;;;;;;;11.20;6.65;;;;;;;;;;5031099;28;20021;-38
2022/10/01 00:57:01;;;;;;;10.48;6.45;;;;;;;;;;5030745;28;20021;-37
2022/10/01 00:59:27;;;;;;;10.07;7.15;;;;;;;;;;5030442;28;20429;-38
2022/10/01 01:01:52;;;;;;;9.98;6.88;;;;;;;;;;5030794;28;20021;-37
2022/10/01 01:04:18;;;;;;;8.75;5.82;;;;;;;;;;5031425;28;20369;-37
2022/10/01 01:06:43;;;;;;;11.38;6.05;;;;;;;;;;5030552;28;20021;-38
2022/10/01 01:09:08;;;;;;;6.97;5.30;;;;;;;;;;5029783;28;20500;-37
2022/10/01 01:11:51;;;;;;;9.68;5.55;;;;;;;;;;5030829;28;20725;-37
2022/10/01 01:14:25;;;;;;;7.38;5.00;;;;;;;;;;5030538;28;20029;-37
2022/10/01 01:16:55;;;;;;;6.18;5.00;;;;;;;;;;5030425;28;20100;-38
2022/10/01 01:19:26;;;;;;;5.55;4.65;;;;;;;;;;5030179;28;20401;-37
2022/10/01 01:21:55;;;;;;;7.13;4.88;;;;;;;;;;5031156;28;20025;-37
2022/10/01 01:24:23;;;;;;;6.20;4.28;;;;;;;;;;5030718;28;20022;-41
2022/10/01 01:27:10;;;;;;;6.47;4.25;;;;;;;;;;5030183;28;20025;-37
2022/10/01 01:29:51;;;;;;;6.20;4.35;;;;;;;;;;5030332;28;20033;-39
2022/10/01 01:32:21;;;;;;;5.40;4.47;;;;;;;;;;5027627;28;20030;-38
2022/10/01 01:34:46;;;;;;;;;;;;;;;;;;5011528;28;20037;-38
2022/10/01 01:37:14;;;;;;;6.63;4.20;;;;;;;;;;5010483;28;19906;-37
2022/10/01 01:39:42;;;;;;;5.05;4.00;;;;;;;;;;5010353;28;20044;-38
2022/10/01 01:42:14;;;;;;;5.50;4.25;;;;;;;;;;5010957;28;20382;-37
2022/10/01 01:44:42;;;;;;;10.43;4.72;;;;;;;;;;5014769;28;20026;-38
2022/10/01 01:47:09;;;;;;;6.00;4.30;;;;;;;;;;5014073;28;20116;-38
2022/10/01 01:49:35;;;;;;;5.60;4.30;;;;;;;;;;5013305;28;20045;-38
2022/10/01 01:52:03;;;;;;;4.95;4.32;;;;;;;;;;5014684;28;20515;-37
2022/10/01 01:54:28;;;;;;;4.82;4.22;;;;;;;;;;5014337;28;20026;-37
2022/10/01 01:56:55;;;;;;;7.25;4.90;;;;;;;;;;5014178;28;20025;-37
2022/10/01 01:59:20;;;;;;;5.35;4.32;;;;;;;;;;5013542;28;20465;-37
2022/10/01 02:01:48;;;;;;;7.35;5.50;;;;;;;;;;5014270;28;20022;-37
2022/10/01 02:04:19;;;;;;;6.72;4.80;;;;;;;;;;5013893;28;20092;-39
2022/10/01 02:06:47;;;;;;;5.63;4.60;;;;;;;;;;5013520;28;20080;-38
2022/10/01 02:09:18;;;;;;;4.90;4.18;;;;;;;;;;5013373;28;20056;-40
2022/10/01 02:11:52;;;;;;;5.72;4.40;;;;;;;;;;5014075;28;20053;-37
2022/10/01 02:14:27;;;;;;;6.75;4.70;;;;;;;;;;5013599;28;20021;-37
2022/10/01 02:17:00;;;;;;;7.18;4.68;;;;;;;;;;5013346;28;20335;-38
2022/10/01 02:19:34;;;;;;;9.40;5.00;;;;;;;;;;5012886;28;20026;-38
2022/10/01 02:22:02;;;;;;;7.47;5.07;;;;;;;;;;5013792;28;20473;-38
2022/10/01 02:24:34;;;;;;;5.93;4.82;;;;;;;;;;5012135;28;20054;-37
2022/10/01 02:27:02;;;;;;;7.13;5.78;;;;;;;;;;5012954;28;20461;-40
2022/10/01 02:29:27;;;;;;;6.85;5.10;;;;;;;;;;5012862;28;20032;-38
2022/10/01 02:31:54;;;;;;;8.38;5.50;;;;;;;;;;5013451;28;20018;-38
2022/10/01 02:34:22;;;;;;;9.88;5.88;;;;;;;;;;5013703;28;20022;-37
2022/10/01 02:36:48;;;;;;;8.90;6.07;;;;;;;;;;5012924;28;20026;-38
2022/10/01 02:39:15;;;;;;;10.95;6.43;;;;;;;;;;5012632;28;20472;-38
2022/10/01 02:41:42;;;;;;;7.03;6.32;;;;;;;;;;5013870;28;20117;-37
2022/10/01 02:44:09;;;;;;;7.55;5.82;;;;;;;;;;5013257;28;20527;-38
2022/10/01 02:46:37;;;;;;;6.93;4.85;;;;;;;;;;5013003;28;20032;-38
2022/10/01 02:49:03;;;;;;;8.57;5.57;;;;;;;;;;5012312;28;20029;-39
2022/10/01 02:51:33;;;;;;;9.05;5.40;;;;;;;;;;5013163;28;20152;-38
2022/10/01 02:54:02;;;;;;;7.38;5.88;;;;;;;;;;5012757;28;20449;-37
2022/10/01 02:59:11;;;;;;;7.80;6.18;;;;;;;;;;5012273;28;20443;-36
2022/10/01 03:01:36;;;;;;;12.13;6.22;;;;;;;;;;5012735;28;20108;-37
2022/10/01 03:04:01;;;;;;;7.97;6.47;;;;;;;;;;5013025;28;20014;-38
2022/10/01 03:06:27;;;;;;;9.93;5.83;;;;;;;;;;5012568;28;20026;-38
2022/10/01 03:08:52;;;;;;;9.35;6.45;;;;;;;;;;5011885;28;20318;-37
2022/10/01 03:11:18;;;;;;;9.30;6.55;;;;;;;;;;5012710;28;20072;-37
2022/10/01 03:13:43;;;;;;;8.60;6.10;;;;;;;;;;5012567;28;20329;-41
2022/10/01 03:16:08;;;;;;;8.57;6.20;;;;;;;;;;5012560;28;20517;-37
2022/10/01 03:18:34;;;;;;;9.43;5.37;;;;;;;;;;5012026;28;20597;-40
2022/10/01 03:20:59;;;;;;;14.63;5.73;;;;;;;;;;5012513;28;20314;-39
2022/10/01 03:23:24;;;;;;;7.43;5.50;;;;;;;;;;5012535;28;20258;-38
2022/10/01 03:25:49;;;;;;;8.03;6.13;;;;;;;;;;5011978;28;20330;-37
2022/10/01 03:28:15;;;;;;;10.32;5.65;;;;;;;;;;5011682;28;20287;-38
2022/10/01 03:30:40;;;;;;;7.82;6.32;;;;;;;;;;5012336;28;20033;-37
2022/10/01 03:33:06;;;;;;;9.65;6.47;;;;;;;;;;5022053;28;20037;-37
2022/10/01 03:35:31;;;;;;;7.07;5.63;;;;;;;;;;5030653;28;20032;-37
2022/10/01 03:37:57;;;;;;;8.90;6.20;;;;;;;;;;5024173;28;20313;-37
2022/10/01 03:40:24;;;;;;;7.90;6.18;;;;;;;;;;5012029;28;20262;-37
2022/10/01 03:42:49;;;;;;;9.35;6.72;;;;;;;;;;5012019;28;20032;-37
2022/10/01 03:45:15;;;;;;;7.60;6.30;;;;;;;;;;5012179;28;20018;-38
2022/10/01 03:47:40;;;;;;;11.55;6.18;;;;;;;;;;5011756;28;20365;-38
2022/10/01 03:50:05;;;;;;;7.60;6.10;;;;;;;;;;5011626;28;20026;-37
2022/10/01 03:52:31;;;;;;;9.00;6.43;;;;;;;;;;5012078;28;20274;-37
2022/10/01 03:54:56;;;;;;;10.90;6.73;;;;;;;;;;5011865;28;20060;-38
2022/10/01 03:57:21;;;;;;;12.03;6.67;;;;;;;;;;5011499;28;20294;-37
2022/10/01 03:59:46;;;;;;;10.33;6.50;;;;;;;;;;5011276;28;20242;-39
2022/10/01 04:02:11;;;;;;;10.47;7.47;;;;;;;;;;5011873;28;20246;-37
2022/10/01 04:04:37;;;;;;;6.72;5.97;;;;;;;;;;5011725;28;20339;-39
2022/10/01 04:07:02;;;;;;;8.43;6.33;;;;;;;;;;5010945;28;20026;-38
2022/10/01 04:09:27;;;;;;;8.70;6.87;;;;;;;;;;5011209;28;20275;-37
2022/10/01 04:11:53;;;;;;;11.40;6.90;;;;;;;;;;5011896;28;20639;-37
2022/10/01 04:14:18;;;;;;;8.52;6.55;;;;;;;;;;5011607;28;20236;-37
2022/10/01 04:16:43;;;;;;;7.77;6.33;;;;;;;;;;5011589;28;20716;-37
2022/10/01 04:19:09;;;;;;;8.43;6.35;;;;;;;;;;5011091;28;20309;-36
2022/10/01 04:21:35;;;;;;;8.53;5.90;;;;;;;;;;5011742;28;20057;-37
2022/10/01 04:24:01;;;;;;;7.03;5.97;;;;;;;;;;5011849;28;20247;-36
2022/10/01 04:26:27;;;;;;;8.48;6.78;;;;;;;;;;5010767;28;20022;-38
2022/10/01 04:28:52;;;;;;;7.43;6.03;;;;;;;;;;5010724;28;20462;-38
2022/10/01 04:31:23;;;;;;;11.43;7.10;;;;;;;;;;5011869;28;20068;-37
2022/10/01 04:33:48;;;;;;;9.18;6.80;;;;;;;;;;5026917;28;20235;-37
2022/10/01 04:36:13;;;;;;;8.97;6.60;;;;;;;;;;5031020;28;20025;-37
2022/10/01 04:38:39;;;;;;;7.88;6.13;;;;;;;;;;5030272;28;20785;-37
2022/10/01 04:41:04;;;;;;;7.25;6.03;;;;;;;;;;5031704;28;20083;-37
2022/10/01 04:43:29;;;;;;;8.85;6.40;;;;;;;;;;5031023;28;20026;-40
2022/10/01 04:45:55;;;;;;;8.32;6.22;;;;;;;;;;5030982;28;20457;-38
2022/10/01 04:48:20;;;;;;;7.88;6.35;;;;;;;;;;5030861;28;20029;-37
2022/10/01 04:50:45;;;;;;;8.63;6.60;;;;;;;;;;5030866;28;20022;-37
2022/10/01 04:53:11;;;;;;;10.13;7.10;;;;;;;;;;5031058;28;20026;-38
2022/10/01 04:55:36;;;;;;;7.65;5.90;;;;;;;;;;5030713;28;20543;-37
2022/10/01 04:58:02;;;;;;;18.73;8.13;;;;;;;;;;5030720;28;20025;-37
2022/10/01 05:00:27;;;;;;;11.35;6.53;;;;;;;;;;5030719;28;20093;-37
2022/10/01 05:02:52;;;;;;;10.82;6.65;;;;;;;;;;5030898;28;20097;-37
2022/10/01 05:05:19;;;;;;;7.40;5.72;;;;;;;;;;5031047;28;20022;-37
2022/10/01 05:07:45;;;;;;;10.85;6.85;;;;;;;;;;5030056;28;20451;-37
2022/10/01 05:10:11;;;;;;;10.55;7.22;;;;;;;;;;5029085;28;20052;-37
2022/10/01 05:12:36;;;;;;;8.43;6.55;;;;;;;;;;5030556;28;20087;-38
2022/10/01 05:15:02;;;;;;;8.35;6.32;;;;;;;;;;5030868;28;20018;-37
2022/10/01 05:17:27;;;;;;;7.22;6.50;;;;;;;;;;5032620;28;20049;-37
2022/10/01 05:19:52;;;;;;;7.45;6.65;;;;;;;;;;5034383;28;20018;-38
2022/10/01 05:22:18;;;;;;;9.37;7.20;;;;;;;;;;5034799;28;20057;-37
2022/10/01 05:24:43;;;;;;;9.95;6.95;;;;;;;;;;5033924;28;20246;-38
2022/10/01 05:27:11;;;;;;;12.93;6.70;;;;;;;;;;5034232;28;20072;-37
2022/10/01 05:29:36;;;;;;;8.60;6.72;;;;;;;;;;5034031;28;20238;-40
2022/10/01 05:32:02;;;;;;;10.40;7.50;;;;;;;;;;5032288;28;20017;-37
2022/10/01 05:34:27;;;;;;;10.68;8.13;;;;;;;;;;5014356;28;20029;-37
2022/10/01 05:36:53;;;;;;;14.43;10.32;;;;;;;;;;5013925;28;20018;-37
2022/10/01 05:39:18;;;;;;;13.10;8.18;;;;;;;;;;5013844;28;20018;-37
2022/10/01 05:41:44;;;;;;;10.60;7.73;;;;;;;;;;5014594;28;20366;-37
2022/10/01 05:44:09;;;;;;;12.40;8.03;;;;;;;;;;5013387;28;20252;-37
2022/10/01 05:46:34;;;;;;;12.40;8.63;;;;;;;;;;5014117;28;20235;-38
2022/10/01 05:48:59;;;;;;;11.70;8.33;;;;;;;;;;5013462;28;20357;-38
2022/10/01 05:51:25;;;;;;;14.10;9.90;;;;;;;;;;5014463;28;20248;-38
2022/10/01 05:53:53;;;;;;;11.47;8.80;;;;;;;;;;5014020;28;20025;-39
2022/10/01 05:56:18;;;;;;;13.35;10.55;;;;;;;;;;5014012;28;20737;-36
2022/10/01 05:58:45;;;;;;;12.83;9.10;;;;;;;;;;5013575;28;20018;-37
2022/10/01 06:01:10;;;;;;;13.20;9.48;;;;;;;;;;5013854;28;20236;-37
2022/10/01 06:03:37;;;;;;;12.02;9.55;;;;;;;;;;5014073;28;20032;-38
2022/10/01 06:06:04;;;;;;;15.30;9.85;;;;;;;;;;5013843;28;20504;-40
2022/10/01 06:08:29;;;;;;;13.52;10.35;;;;;;;;;;5012809;28;20080;-39
2022/10/01 06:10:59;;;;;;;18.15;10.95;;;;;;;;;;5013830;28;20030;-37
2022/10/01 06:13:25;;;;;;;17.63;10.93;;;;;;;;;;5013612;28;20029;-38
2022/10/01 06:15:50;;;;;;;16.13;11.02;;;;;;;;;;5013445;28;20026;-38
2022/10/01 06:18:16;;;;;;;14.27;10.68;;;;;;;;;;5013210;28;20436;-37
2022/10/01 06:20:41;;;;;;;17.37;10.53;;;;;;;;;;5013567;28;20030;-37
2022/10/01 06:23:10;;;;;;;15.90;10.93;;;;;;;;;;5012270;28;20251;-37
2022/10/01 06:25:37;;;;;;;15.43;11.13;;;;;;;;;;5013348;28;20124;-38
2022/10/01 06:28:04;;;;;;;17.48;12.02;;;;;;;;;;5012886;28;20030;-38
2022/10/01 06:30:30;;;;;;;15.07;11.20;;;;;;;;;;5013135;28;20026;-38
2022/10/01 06:33:02;;;;;;;14.80;11.80;;;;;;;;;;5022363;28;20031;-38
2022/10/01 06:35:28;;;;;;;14.88;11.63;;;;;;;;;;5032840;28;20025;-39
2022/10/01 06:37:53;;;;;;;19.33;12.93;;;;;;;;;;5032796;28;20021;-38
2022/10/01 06:40:18;;;;;;;19.27;11.80;;;;;;;;;;5032967;28;20049;-38
2022/10/01 06:42:47;;;;;;;17.55;12.50;;;;;;;;;;5033242;28;20718;-38
2022/10/01 06:45:13;;;;;;;19.90;13.48;;;;;;;;;;5032864;28;20428;-39
2022/10/01 06:47:38;;;;;;;17.95;12.70;;;;;;;;;;5032456;28;20037;-37
2022/10/01 06:50:04;;;;;;;16.23;11.93;;;;;;;;;;5032395;28;20057;-38
2022/10/01 06:55:13;;;;;;;19.27;12.05;;;;;;;;;;5032772;28;20141;-39
2022/10/01 06:57:38;;;;;;;19.45;13.05;;;;;;;;;;5032450;28;20481;-38
2022/10/01 07:00:04;;;;;;;18.03;13.33;;;;;;;;;;5032425;28;20457;-38
2022/10/01 07:02:31;;;;;;;20.33;14.35;;;;;;;;;;5032426;28;20228;-38
2022/10/01 07:04:59;;;;;;;16.88;13.20;;;;;;;;;;5031372;28;20552;-38
2022/10/01 07:07:28;;;;;;;18.17;13.20;;;;;;;;;;5032403;28;20100;-39
2022/10/01 07:09:54;;;;;;;16.65;12.35;;;;;;;;;;5032179;28;20485;-37
2022/10/01 07:12:19;;;;;;;21.33;13.70;;;;;;;;;;5033327;28;20026;-39
2022/10/01 07:14:44;;;;;;;17.75;12.25;;;;;;;;;;5031894;28;20676;-40
2022/10/01 07:17:10;;;;;;;21.13;13.03;;;;;;;;;;5031869;28;20067;-37
2022/10/01 07:19:35;;;;;;;16.60;12.32;;;;;;;;;;5032056;28;20271;-38
2022/10/01 07:22:00;;;;;;;20.67;12.70;;;;;;;;;;5031279;28;20026;-37
2022/10/01 07:24:25;;;;;;;16.47;12.60;;;;;;;;;;5032507;28;20282;-38
2022/10/01 07:26:54;;;;;;;20.30;13.23;;;;;;;;;;5031672;28;20242;-37
2022/10/01 07:29:19;;;;;;;18.38;13.27;;;;;;;;;;5032051;28;20282;-38
2022/10/01 07:31:44;;;;;;;17.23;13.20;;;;;;;;;;5032135;28;20052;-37
2022/10/01 07:34:10;;;;;;;18.47;13.43;;;;;;;;;;5013578;28;20327;-38
2022/10/01 07:36:35;;;;;;;22.60;14.20;;;;;;;;;;5012029;28;20337;-39
2022/10/01 07:39:00;;;;;;;20.47;13.20;;;;;;;;;;5011714;28;20246;-38
2022/10/01 07:41:26;;;;;;;18.80;13.10;;;;;;;;;;5012433;28;20244;-38
2022/10/01 07:43:51;;;;;;;18.65;13.43;;;;;;;;;;5012131;28;20660;-38
2022/10/01 07:46:16;;;;;;;20.20;13.43;;;;;;;;;;5011917;28;20025;-38
2022/10/01 07:48:42;;;;;;;22.63;12.75;;;;;;;;;;5009914;28;20291;-38
2022/10/01 07:51:08;;;;;;;19.67;13.52;;;;;;;;;;5012462;28;20109;-37
2022/10/01 07:53:33;;;;;;;21.95;15.13;;;;;;;;;;5011855;28;20021;-38
2022/10/01 07:56:01;;;;;;;18.50;13.50;;;;;;;;;;5012305;28;20368;-38
2022/10/01 07:58:27;;;;;;;23.38;14.05;;;;;;;;;;5011431;28;20808;-38
2022/10/01 08:00:57;;;;;;;23.53;13.70;;;;;;;;;;5011650;28;20018;-38
2022/10/01 08:03:22;;;;;;;23.33;15.25;;;;;;;;;;5012222;28;20259;-37
2022/10/01 08:05:48;;;;;;;20.95;14.25;;;;;;;;;;5011742;28;20278;-38
2022/10/01 08:08:13;;;;;;;25.48;14.25;;;;;;;;;;5011000;28;20464;-38
2022/10/01 08:10:40;;;;;;;20.02;14.88;;;;;;;;;;5011474;28;20465;-38
2022/10/01 08:13:13;;;;;;;22.25;14.63;;;;;;;;;;5011464;28;20037;-38
2022/10/01 08:15:38;;;;;;;24.73;13.95;;;;;;;;;;5011257;28;20032;-38
2022/10/01 08:18:03;;;;;;;23.00;14.70;;;;;;;;;;5011175;28;20097;-38
2022/10/01 08:20:29;;;;;;;22.63;14.07;;;;;;;;;;5011851;28;20068;-38
2022/10/01 08:22:59;;;;;;;25.20;14.80;;;;;;;;;;5011614;28;20096;-37
2022/10/01 08:25:25;;;;;;;24.27;13.32;;;;;;;;;;5011130;28;20112;-39
2022/10/01 08:27:50;;;;;;;19.73;11.13;;;;;;;;;;5011032;28;20113;-39
2022/10/01 08:30:15;;;;;;;20.00;11.65;;;;;;;;;;5011078;28;20236;-38
2022/10/01 08:32:40;;;;;;;20.70;8.33;;;;;;;;;;5018130;28;20419;-39
2022/10/01 08:35:06;;;;;;;12.30;8.73;;;;;;;;;;5031103;28;20278;-38
2022/10/01 08:37:31;;;;;;;14.45;9.85;;;;;;;;;;5030570;28;20235;-37
2022/10/01 08:39:56;;;;;;;14.47;10.57;;;;;;;;;;5030916;28;20025;-37
2022/10/01 08:42:22;;;;;;;15.07;9.80;;;;;;;;;;5031134;28;20239;-37
2022/10/01 08:44:47;;;;;;;12.50;8.70;;;;;;;;;;5030790;28;20014;-38
2022/10/01 08:47:15;;;;;;;10.40;7.32;;;;;;;;;;5030598;28;20243;-38
2022/10/01 08:49:44;;;;;;;11.93;6.97;;;;;;;;;;5030660;28;20488;-37
2022/10/01 08:52:18;;;;;;;10.88;6.75;;;;;;;;;;5032769;28;20491;-38
2022/10/01 08:54:57;;;;;;;10.15;6.38;;;;;;;;;;5035122;28;20099;-39
2022/10/01 08:57:26;;;;;;;10.98;6.45;;;;;;;;;;5034520;28;20033;-38
2022/10/01 08:59:54;;;;;;;15.43;6.93;;;;;;;;;;5034992;28;20101;-38
2022/10/01 09:02:38;;;;;;;12.65;8.07;;;;;;;;;;5034860;28;20021;-38
2022/10/01 09:05:05;;;;;;;13.98;8.48;;;;;;;;;;5034800;28;20477;-38
2022/10/01 09:07:49;;;;;;;16.02;10.10;;;;;;;;;;5034292;28;20041;-38
2022/10/01 09:10:26;;;;;;;15.93;10.30;;;;;;;;;;5035002;28;20052;-38
2022/10/01 09:13:05;;;;;;;12.05;9.40;;;;;;;;;;5034546;28;20052;-37
2022/10/01 09:15:38;;;;;;;15.32;9.35;;;;;;;;;;5034408;28;20036;-38
2022/10/01 09:18:03;;;;;;;16.20;9.02;;;;;;;;;;5034010;28;20032;-37
2022/10/01 09:20:36;;;;;;;15.50;10.40;;;;;;;;;;5034798;28;20021;-38
2022/10/01 09:23:04;;;;;;;14.38;11.15;;;;;;;;;;5034748;28;20030;-37
2022/10/01 09:25:30;;;;;;;17.65;11.52;;;;;;;;;;5034177;28;20109;-38
2022/10/01 09:28:01;;;;;;;18.33;12.80;;;;;;;;;;5034036;28;20208;-38
2022/10/01 09:30:27;;;;;;;28.05;15.23;;;;;;;;;;5034406;28;20018;-38
2022/10/01 09:33:02;;;;;;;18.85;15.18;;;;;;;;;;5026539;28;20470;-37
2022/10/01 09:35:27;;;;;;;23.40;16.77;;;;;;;;;;5014592;28;20112;-38
2022/10/01 09:37:57;;;;;;;22.20;15.53;;;;;;;;;;5013884;28;20434;-39
2022/10/01 09:40:46;;;;;;;26.58;16.05;;;;;;;;;;5014483;28;20517;-37
2022/10/01 09:43:11;;;;;;;17.40;14.15;;;;;;;;;;5016758;28;20377;-38
2022/10/01 09:45:37;;;;;;;18.05;13.98;;;;;;;;;;5014571;28;20018;-37
2022/10/01 09:48:21;;;;;;;21.35;14.07;;;;;;;;;;5012740;28;20033;-37
2022/10/01 09:50:53;;;;;;;15.80;10.65;;;;;;;;;;5013986;28;20270;-38
2022/10/01 09:53:21;;;;;;;15.23;11.07;;;;;;;;;;5014186;28;20021;-38
2022/10/01 09:55:54;;;;;;;17.58;11.90;;;;;;;;;;5014027;28;20759;-37
2022/10/01 09:58:21;;;;;;;14.38;10.00;;;;;;;;;;5013400;28;20026;-38
2022/10/01 10:00:53;;;;;;;15.32;9.98;;;;;;;;;;5013782;28;20021;-37
2022/10/01 10:03:22;;;;;;;17.05;10.90;;;;;;;;;;5012938;28;20025;-37
2022/10/01 10:05:48;;;;;;;15.73;10.57;;;;;;;;;;5014212;28;20369;-41
2022/10/01 10:08:13;;;;;;;12.88;10.40;;;;;;;;;;5012962;28;20036;-38
2022/10/01 10:10:39;;;;;;;20.02;11.10;;;;;;;;;;5013969;28;20427;-37
2022/10/01 10:13:23;;;;;;;17.90;11.73;;;;;;;;;;5013852;28;20026;-37
2022/10/01 10:15:50;;;;;;;16.85;11.32;;;;;;;;;;5013631;28;20498;-36
2022/10/01 10:18:16;;;;;;;18.30;11.60;;;;;;;;;;5012871;28;20057;-37
2022/10/01 10:20:42;;;;;;;17.15;11.40;;;;;;;;;;5013418;28;20521;-37
2022/10/01 10:23:14;;;;;;;15.85;11.52;;;;;;;;;;5013840;28;20401;-37
2022/10/01 10:25:39;;;;;;;16.15;9.35;;;;;;;;;;5013209;28;20022;-38
2022/10/01 10:28:16;;;;;;;14.32;10.27;;;;;;;;;;5012922;28;20041;-36
2022/10/01 10:30:41;;;;;;;15.65;9.20;;;;;;;;;;5013211;28;20026;-37
2022/10/01 10:33:11;;;;;;;15.00;9.45;;;;;;;;;;5023744;28;20029;-38
2022/10/01 10:35:37;;;;;;;12.45;9.73;;;;;;;;;;5033230;28;20025;-37
2022/10/01 10:38:02;;;;;;;13.80;8.48;;;;;;;;;;5032481;28;20029;-37
2022/10/01 10:40:48;;;;;;;15.27;7.82;;;;;;;;;;5032959;28;20372;-38
2022/10/01 10:43:19;;;;;;;8.45;7.35;;;;;;;;;;5032705;28;20421;-37
2022/10/01 10:45:45;;;;;;;10.55;7.28;;;;;;;;;;5032527;28;20333;-37
2022/10/01 10:48:13;;;;;;;11.40;7.03;;;;;;;;;;5032506;28;20030;-37
2022/10/01 10:50:43;;;;;;;11.20;7.37;;;;;;;;;;5032538;28;20045;-37
2022/10/01 10:53:19;;;;;;;9.35;6.43;;;;;;;;;;5032815;28;20254;-37
2022/10/01 10:56:04;;;;;;;11.60;6.18;;;;;;;;;;5032406;28;20030;-37
2022/10/01 10:58:36;;;;;;;8.90;5.55;;;;;;;;;;5031639;28;20071;-40
2022/10/01 11:01:12;;;;;;;11.55;5.97;;;;;;;;;;5032700;28;20025;-37
2022/10/01 11:03:48;;;;;;;12.82;5.32;;;;;;;;;;5032846;28;20095;-38
2022/10/01 11:06:16;;;;;;;9.52;5.78;;;;;;;;;;5032055;28;20018;-37
2022/10/01 11:08:42;;;;;;;8.57;5.60;;;;;;;;;;5031715;28;20132;-39
2022/10/01 11:11:26;;;;;;;11.70;5.78;;;;;;;;;;5032524;28;20544;-37
2022/10/01 11:14:30;;;;;;;11.60;6.43;;;;;;;;;;5032656;28;20108;-37
2022/10/01 11:17:11;;;;;;;12.55;7.47;;;;;;;;;;5048930;28;20060;-37
2022/10/01 11:20:03;;;;;;;10.65;6.50;;;;;;;;;;5049081;28;20032;-38
2022/10/01 11:22:57;;;;;;;11.90;6.57;;;;;;;;;;5001766;28;20042;-37
2022/10/01 11:25:23;;;;;;;10.43;5.97;;;;;;;;;;5034880;28;20052;-38
2022/10/01 11:28:06;;;;;;;11.73;6.83;;;;;;;;;;5032189;28;20044;-37
2022/10/01 11:30:37;;;;;;;15.68;7.20;;;;;;;;;;5031852;28;20021;-37
2022/10/01 11:33:18;;;;;;;13.95;6.53;;;;;;;;;;5022856;28;20029;-37
2022/10/01 11:35:54;;;;;;;9.02;5.88;;;;;;;;;;5011815;28;20022;-37
2022/10/01 11:38:35;;;;;;;14.35;6.75;;;;;;;;;;5011544;28;20037;-38
2022/10/01 11:41:09;;;;;;;9.80;7.22;;;;;;;;;;5012343;28;20026;-39
2022/10/01 11:43:48;;;;;;;12.75;7.38;;;;;;;;;;5012341;28;20026;-38
2022/10/01 11:46:32;;;;;;;11.27;7.38;;;;;;;;;;5011673;28;20729;-38
2022/10/01 11:49:18;;;;;;;12.32;7.50;;;;;;;;;;5011108;28;20041;-37
2022/10/01 11:51:50;;;;;;;11.75;6.72;;;;;;;;;;5012094;28;20482;-37
2022/10/01 11:54:19;;;;;;;11.00;7.00;;;;;;;;;;5011835;28;20458;-37
2022/10/01 11:59:35;;;;;;;10.18;6.78;;;;;;;;;;5011649;28;20060;-36
2022/10/01 12:02:00;;;;;;;9.97;7.33;;;;;;;;;;5011927;28;20026;-38
2022/10/01 12:04:37;;;;;;;11.67;7.40;;;;;;;;;;5011876;28;20025;-36
2022/10/01 12:07:11;;;;;;;12.95;7.85;;;;;;;;;;5011325;28;20030;-37
2022/10/01 12:09:48;;;;;;;11.88;6.93;;;;;;;;;;5011244;28;20054;-37
2022/10/01 12:12:19;;;;;;;11.45;7.00;;;;;;;;;;5012246;28;20050;-37
2022/10/01 12:14:47;;;;;;;12.50;7.05;;;;;;;;;;5010154;28;20025;-37
2022/10/01 12:17:16;;;;;;;13.57;6.83;;;;;;;;;;5011097;28;20044;-38
2022/10/01 12:19:45;;;;;;;10.55;6.60;;;;;;;;;;5011366;28;20072;-37
2022/10/01 12:22:14;;;;;;;10.52;7.18;;;;;;;;;;5011757;28;20034;-39
2022/10/01 12:24:43;;;;;;;8.85;7.13;;;;;;;;;;5011361;28;20032;-38
2022/10/01 12:27:09;;;;;;;;;;;;;;;;;;5010776;28;20025;-39
2022/10/01 12:29:37;;;;;;;7.50;5.45;;;;;;;;;;5010793;28;19959;-37
2022/10/01 12:32:02;;;;;;;9.35;6.03;;;;;;;;;;5012695;28;20033;-38
2022/10/01 12:34:28;;;;;;;7.70;4.88;;;;;;;;;;5031089;28;20021;-37
2022/10/01 12:37:15;;;;;;;8.57;4.40;;;;;;;;;;5030496;28;20021;-37
2022/10/01 12:39:40;;;;;;;6.25;4.25;;;;;;;;;;5030394;28;20116;-37
2022/10/01 12:42:18;;;;;;;7.13;4.10;;;;;;;;;;5031147;28;20227;-37
2022/10/01 12:44:49;;;;;;;7.88;4.00;;;;;;;;;;5031272;28;20017;-37
2022/10/01 12:47:17;;;;;;;6.97;3.95;;;;;;;;;;5030760;28;20026;-38
2022/10/01 12:49:43;;;;;;;7.00;3.92;;;;;;;;;;5030231;28;20045;-37
2022/10/01 12:52:08;;;;;;;7.00;4.17;;;;;;;;;;5030013;28;20021;-38
2022/10/01 12:54:33;;;;;;;5.80;4.73;;;;;;;;;;5031491;28;20026;-38
2022/10/01 12:57:13;;;;;;;6.80;4.80;;;;;;;;;;5030570;28;20022;-39
2022/10/01 12:59:56;;;;;;;7.25;4.68;;;;;;;;;;5030591;28;20265;-37
2022/10/01 13:02:42;;;;;;;11.43;4.60;;;;;;;;;;5030692;28;20032;-38
2022/10/01 13:05:28;;;;;;;9.52;6.25;;;;;;;;;;5038910;28;20396;-38
2022/10/01 13:07:55;;;;;;;11.63;5.55;;;;;;;;;;5032898;28;20041;-38
2022/10/01 13:10:20;;;;;;;6.50;5.35;;;;;;;;;;5030725;28;20041;-37
2022/10/01 13:12:48;;;;;;;9.10;5.60;;;;;;;;;;5030789;28;20017;-39
2022/10/01 13:15:16;;;;;;;12.27;7.00;;;;;;;;;;5030691;28;20240;-39
2022/10/01 13:17:46;;;;;;;11.43;6.75;;;;;;;;;;5030235;28;20464;-38
2022/10/01 13:20:15;;;;;;;8.15;6.03;;;;;;;;;;5030619;28;20074;-38
2022/10/01 13:22:51;;;;;;;9.07;6.22;;;;;;;;;;5031055;28;20082;-37
2022/10/01 13:25:16;;;;;;;9.20;6.35;;;;;;;;;;5030194;28;20037;-38
2022/10/01 13:27:48;;;;;;;7.50;5.17;;;;;;;;;;5030407;28;20052;-37
2022/10/01 13:30:20;;;;;;;11.55;5.80;;;;;;;;;;5030118;28;20411;-38
2022/10/01 13:32:52;;;;;;;9.25;5.75;;;;;;;;;;5024142;28;20058;-38
2022/10/01 13:35:38;;;;;;;10.70;6.05;;;;;;;;;;5010508;28;20033;-41
2022/10/01 13:38:13;;;;;;;12.07;5.72;;;;;;;;;;5011674;28;20022;-40
2022/10/01 13:40:39;;;;;;;10.70;6.22;;;;;;;;;;5014087;28;20500;-38
2022/10/01 13:43:14;;;;;;;10.48;5.60;;;;;;;;;;5014767;28;20049;-38
2022/10/01 13:45:41;;;;;;;9.27;5.57;;;;;;;;;;5014166;28;20408;-38
2022/10/01 13:48:09;;;;;;;10.85;6.40;;;;;;;;;;5014004;28;20107;-39
2022/10/01 13:50:35;;;;;;;8.30;5.47;;;;;;;;;;5013574;28;20040;-39
2022/10/01 13:53:16;;;;;;;7.55;5.32;;;;;;;;;;5014372;28;20014;-38
2022/10/01 13:55:43;;;;;;;7.18;5.30;;;;;;;;;;5014260;28;20148;-38
2022/10/01 13:58:27;;;;;;;8.00;4.85;;;;;;;;;;5013817;28;20069;-39
2022/10/01 14:00:54;;;;;;;6.55;4.50;;;;;;;;;;5013797;28;20017;-38
2022/10/01 14:03:22;;;;;;;8.90;5.00;;;;;;;;;;5013942;28;20048;-39
2022/10/01 14:05:52;;;;;;;8.17;5.00;;;;;;;;;;5013759;28;20030;-38
2022/10/01 14:08:36;;;;;;;8.50;4.47;;;;;;;;;;5013495;28;20068;-38
2022/10/01 14:16:34;;;;;;;8.63;4.03;;;;;;;;;;5013697;28;20037;-38
2022/10/01 14:18:59;;;;;;;;;;;;;;;;;;5013730;28;20022;-43
2022/10/01 14:21:27;;;;;;;10.45;4.32;;;;;;;;;;5013721;28;19912;-39
2022/10/01 14:23:52;;;;;;;6.13;3.65;;;;;;;;;;5013970;28;20064;-38
2022/10/01 14:26:36;;;;;;;8.80;4.30;;;;;;;;;;5013000;28;20441;-38
2022/10/01 14:29:01;;;;;;;7.57;4.03;;;;;;;;;;5013057;28;20434;-39
2022/10/01 14:31:44;;;;;;;5.83;3.60;;;;;;;;;;5013589;28;20124;-39
2022/10/01 14:34:12;;;;;;;10.95;3.42;;;;;;;;;;5032128;28;20269;-38
2022/10/01 14:36:42;;;;;;;5.00;3.40;;;;;;;;;;5033209;28;20021;-39
2022/10/01 14:39:13;;;;;;;7.07;3.40;;;;;;;;;;5032469;28;20036;-38
2022/10/01 14:41:38;;;;;;;5.03;3.13;;;;;;;;;;5033145;28;20021;-38
2022/10/01 14:44:26;;;;;;;8.33;3.20;;;;;;;;;;5033325;28;20143;-39
2022/10/01 14:46:53;;;;;;;6.28;3.25;;;;;;;;;;5032887;28;20686;-38
2022/10/01 14:49:38;;;;;;;6.63;3.35;;;;;;;;;;5031254;28;20033;-38
2022/10/01 14:52:15;;;;;;;3.65;3.17;;;;;;;;;;5032930;28;20033;-39
2022/10/01 14:54:53;;;;;;;4.95;3.35;;;;;;;;;;5032920;28;20025;-38
2022/10/01 14:57:38;;;;;;;8.15;3.50;;;;;;;;;;5032485;28;20029;-38